Terminal Aerodrome Forecast
Issued by NWS

Home | Current Version | Previous Version | Text Only | Print | Product List | Glossary On
Versions: 1 2 3 4 5 6 7 8 9 10 11 12 13 14
000
FTUS42 KTAE 201008 AAA
TAFABY
TAF AMD
KABY 201008Z 2010/2106 26004KT 5SM BR BKN250
     FM201300 VRB03KT 6SM BR SCT005 BKN020
     FM201400 27005KT P6SM SCT040
     FM210000 VRB03KT P6SM BKN250=

USA.gov is the U.S. government's official web portal to all federal, state and local government web resources and services.